Terminal Aerodrome Forecast
Issued by NWS Charleston, WV

Home | Current Version | Previous Version | Text Only | Print | Product List | Glossary On
Versions: 1 2 3 4 5 6 7 8 9 10 11 12 13 14 15 16 17 18 19 20 21 22 23 24 25 26
000
FTUS41 KRLX 301120
TAFPKB
TAF
KPKB 301120Z 3012/3112 30004KT 6SM BR BKN035
     FM301400 32005KT P6SM BKN035
     FM301700 29007KT P6SM FEW050
     FM310100 28004KT P6SM SKC=

USA.gov is the U.S. government's official web portal to all federal, state and local government web resources and services.